createdAt,value
2019-03-27T00:00:46.584Z,12.70
2019-03-27T00:03:18.681Z,13.33
2019-03-27T00:05:51.685Z,25.93
2019-03-27T00:08:23.781Z,18.07
2019-03-27T00:10:55.876Z,16.97
2019-03-27T00:13:27.962Z,18.60
2019-03-27T00:16:00.078Z,18.63
2019-03-27T00:18:32.227Z,16.67
2019-03-27T00:21:04.703Z,9.27
2019-03-27T00:23:37.195Z,17.30
2019-03-27T00:26:09.647Z,18.87
2019-03-27T00:28:42.132Z,13.33
2019-03-27T00:31:14.262Z,17.20
2019-03-27T00:33:46.724Z,29.63
2019-03-27T00:36:18.924Z,28.83
2019-03-27T00:38:51.094Z,13.00
2019-03-27T00:41:23.647Z,22.97
2019-03-27T00:43:55.821Z,20.83
2019-03-27T00:46:28.380Z,16.82
2019-03-27T00:49:00.437Z,17.07
2019-03-27T00:51:32.531Z,18.93
2019-03-27T00:54:05.795Z,18.03
2019-03-27T00:56:37.943Z,13.13
2019-03-27T00:59:10.383Z,22.50
2019-03-27T01:01:42.517Z,15.13
2019-03-27T01:04:16.047Z,22.10
2019-03-27T01:06:50.953Z,20.33
2019-03-27T01:09:22.944Z,18.47
2019-03-27T01:11:55.444Z,19.77
2019-03-27T01:14:28.039Z,16.95
2019-03-27T01:17:00.448Z,18.83
2019-03-27T01:19:32.533Z,25.72
2019-03-27T01:22:04.629Z,22.73
2019-03-27T01:24:36.814Z,18.77
2019-03-27T01:27:09.726Z,20.93
2019-03-27T01:29:42.146Z,18.40
2019-03-27T01:32:14.676Z,22.80
2019-03-27T01:34:47.545Z,21.77
2019-03-27T01:37:21.343Z,17.20
2019-03-27T01:39:53.883Z,23.70
2019-03-27T01:42:25.979Z,16.70
2019-03-27T01:44:58.131Z,19.83
2019-03-27T01:47:30.245Z,23.75
2019-03-27T01:50:02.324Z,15.20
2019-03-27T01:52:35.208Z,14.70
2019-03-27T01:55:07.632Z,21.57
2019-03-27T01:57:39.763Z,17.27
2019-03-27T02:00:12.964Z,23.67
2019-03-27T02:02:45.125Z,16.00
2019-03-27T02:05:17.588Z,17.00
2019-03-27T02:07:50.466Z,24.60
2019-03-27T02:10:23.891Z,20.08
2019-03-27T02:12:56.603Z,20.63
2019-03-27T02:15:29.217Z,17.37
2019-03-27T02:18:01.656Z,16.97
2019-03-27T02:20:33.872Z,20.90
2019-03-27T02:23:06.326Z,15.27
2019-03-27T02:25:39.036Z,20.90
2019-03-27T02:28:11.491Z,19.80
2019-03-27T02:30:43.598Z,20.00
2019-03-27T02:33:16.899Z,16.52
2019-03-27T02:35:48.988Z,28.10
2019-03-27T02:38:21.591Z,19.53
2019-03-27T02:40:54.487Z,23.47
2019-03-27T02:43:27.624Z,20.63
2019-03-27T02:45:59.687Z,25.17
2019-03-27T02:48:32.184Z,31.07
2019-03-27T02:51:05.503Z,26.80
2019-03-27T02:53:39.193Z,33.50
2019-03-27T02:56:11.392Z,25.10
2019-03-27T02:58:44.299Z,26.90
2019-03-27T03:01:16.859Z,24.07
2019-03-27T03:03:49.600Z,20.83
2019-03-27T03:06:22.388Z,25.90
2019-03-27T03:08:54.873Z,27.33
2019-03-27T03:11:27.015Z,23.63
2019-03-27T03:13:59.544Z,24.30
2019-03-27T03:16:42.091Z,18.93
2019-03-27T03:19:05.406Z,19.83
2019-03-27T03:21:37.887Z,27.35
2019-03-27T03:24:11.393Z,25.10
2019-03-27T03:26:44.021Z,26.40
2019-03-27T03:29:16.611Z,28.10
2019-03-27T03:31:48.690Z,29.60
2019-03-27T03:34:21.874Z,29.33
2019-03-27T03:36:54.843Z,18.67
2019-03-27T03:39:27.156Z,29.13
2019-03-27T03:41:59.612Z,27.07
2019-03-27T03:44:32.426Z,20.20
2019-03-27T03:47:04.527Z,16.03
2019-03-27T03:49:36.981Z,28.63
2019-03-27T03:52:09.439Z,18.70
2019-03-27T03:54:41.762Z,21.60
2019-03-27T03:57:14.183Z,23.97
2019-03-27T03:59:48.170Z,24.37
2019-03-27T04:02:21.696Z,29.63
2019-03-27T04:04:56.227Z,22.93
2019-03-27T04:07:28.721Z,28.10
2019-03-27T04:10:00.743Z,25.90
2019-03-27T04:12:33.147Z,25.27
2019-03-27T04:15:06.160Z,27.42
2019-03-27T04:17:38.591Z,22.13
2019-03-27T04:20:11.051Z,18.48
2019-03-27T04:22:43.500Z,31.40
2019-03-27T04:25:15.731Z,29.33
2019-03-27T04:27:48.149Z,28.40
2019-03-27T04:30:20.388Z,25.70
2019-03-27T04:32:52.837Z,34.43
2019-03-27T04:35:25.117Z,40.23
2019-03-27T04:37:57.744Z,29.93
2019-03-27T04:40:30.177Z,28.60
2019-03-27T04:43:02.281Z,34.23
2019-03-27T04:45:34.369Z,38.50
2019-03-27T04:48:06.911Z,33.33
2019-03-27T04:50:39.051Z,36.03
2019-03-27T04:53:11.985Z,36.33
2019-03-27T04:55:44.075Z,33.40
2019-03-27T04:58:16.168Z,34.17
2019-03-27T05:00:48.260Z,27.22
2019-03-27T05:03:21.015Z,29.73
2019-03-27T05:05:53.112Z,29.47
2019-03-27T05:08:25.172Z,29.87
2019-03-27T05:10:57.437Z,34.00
2019-03-27T05:13:29.505Z,34.10
2019-03-27T05:16:01.658Z,34.47
2019-03-27T05:18:33.773Z,33.20
2019-03-27T05:21:05.905Z,40.43
2019-03-27T05:23:38.547Z,39.20
2019-03-27T05:26:10.655Z,47.27
2019-03-27T05:28:43.595Z,32.60
2019-03-27T05:31:15.743Z,36.92
2019-03-27T05:33:48.443Z,33.00
2019-03-27T05:36:21.248Z,36.27
2019-03-27T05:38:53.373Z,34.10
2019-03-27T05:41:26.464Z,40.93
2019-03-27T05:43:58.625Z,42.17
2019-03-27T05:46:31.145Z,46.87
2019-03-27T05:49:03.540Z,43.83
2019-03-27T05:51:35.668Z,39.90
2019-03-27T05:54:08.584Z,45.13
2019-03-27T05:56:40.677Z,48.47
2019-03-27T06:23:06.437Z,42.10
2019-03-27T06:25:38.606Z,48.78
2019-03-27T06:28:10.711Z,39.93
2019-03-27T06:30:43.211Z,43.00
2019-03-27T06:33:15.402Z,41.37
2019-03-27T06:35:47.458Z,45.57
2019-03-27T06:38:19.979Z,46.80
2019-03-27T06:40:52.048Z,39.67
2019-03-27T06:43:24.550Z,39.43
2019-03-27T06:45:58.477Z,42.07
2019-03-27T06:48:31.036Z,41.47
2019-03-27T06:51:03.219Z,45.57
2019-03-27T06:53:35.724Z,42.57
2019-03-27T06:56:07.814Z,40.97
2019-03-27T06:58:53.540Z,46.10
2019-03-27T07:01:16.001Z,41.87
2019-03-27T07:03:48.439Z,47.33
2019-03-27T07:06:20.985Z,37.48
2019-03-27T07:08:53.478Z,37.88
2019-03-27T07:11:26.098Z,43.10
2019-03-27T07:13:58.366Z,39.00
2019-03-27T07:16:32.383Z,45.77
2019-03-27T07:19:05.898Z,46.47
2019-03-27T07:21:38.721Z,42.97
2019-03-27T07:24:11.726Z,43.23
2019-03-27T07:26:43.984Z,52.37
2019-03-27T07:29:19.017Z,41.42
2019-03-27T07:31:51.647Z,41.17
2019-03-27T07:34:24.052Z,47.27
2019-03-27T07:36:56.961Z,39.60
2019-03-27T07:39:29.733Z,43.37
2019-03-27T07:42:02.239Z,43.30
2019-03-27T07:44:34.341Z,46.53
2019-03-27T07:47:06.474Z,41.13
2019-03-27T07:49:38.626Z,43.30
2019-03-27T07:52:10.991Z,35.77
2019-03-27T07:54:43.988Z,42.33
2019-03-27T07:57:16.129Z,42.10
2019-03-27T07:59:48.937Z,39.27
2019-03-27T08:02:21.074Z,48.33
2019-03-27T08:04:54.065Z,37.13
2019-03-27T08:07:27.281Z,37.13
2019-03-27T08:09:59.929Z,35.50
2019-03-27T08:12:32.052Z,42.90
2019-03-27T08:15:05.218Z,44.37
2019-03-27T08:17:37.652Z,32.43
2019-03-27T08:20:11.194Z,45.30
2019-03-27T08:22:43.629Z,38.97
2019-03-27T08:25:17.653Z,42.20
2019-03-27T08:27:50.110Z,42.20
2019-03-27T08:30:22.487Z,44.20
2019-03-27T08:32:54.863Z,37.13
2019-03-27T08:35:26.924Z,37.57
2019-03-27T08:38:02.614Z,36.23
2019-03-27T08:40:34.815Z,35.17
2019-03-27T08:43:20.219Z,43.83
2019-03-27T08:45:41.394Z,32.20
2019-03-27T08:48:14.016Z,32.33
2019-03-27T08:50:46.532Z,36.00
2019-03-27T08:53:18.713Z,32.60
2019-03-27T08:55:51.905Z,31.97
2019-03-27T08:58:24.009Z,38.57
2019-03-27T09:00:56.964Z,31.90
2019-03-27T09:03:29.099Z,36.27
2019-03-27T09:06:02.711Z,32.83
2019-03-27T09:08:35.455Z,32.07
2019-03-27T09:11:08.896Z,29.92
2019-03-27T09:13:41.986Z,32.05
2019-03-27T09:16:14.454Z,32.50
2019-03-27T09:18:49.367Z,26.90
2019-03-27T09:21:21.785Z,28.13
2019-03-27T09:23:54.571Z,29.03
2019-03-27T09:26:26.735Z,28.23
2019-03-27T09:28:59.787Z,34.20
2019-03-27T09:31:44.068Z,26.63
2019-03-27T09:34:06.850Z,25.57
2019-03-27T09:36:41.585Z,27.07
2019-03-27T09:39:17.075Z,29.02
2019-03-27T09:41:49.619Z,27.53
2019-03-27T09:44:24.363Z,23.57
2019-03-27T09:46:56.459Z,30.07
2019-03-27T09:49:28.625Z,27.50
2019-03-27T09:52:04.012Z,24.97
2019-03-27T09:54:36.797Z,27.75
2019-03-27T09:57:08.932Z,23.95
2019-03-27T09:59:41.025Z,29.17
2019-03-27T10:02:13.119Z,21.60
2019-03-27T10:04:45.251Z,21.70
2019-03-27T10:07:17.724Z,19.60
2019-03-27T10:09:50.494Z,21.77
2019-03-27T10:12:23.003Z,23.37
2019-03-27T10:14:55.807Z,23.30
2019-03-27T10:17:29.988Z,25.73
2019-03-27T10:20:04.057Z,16.93
2019-03-27T10:22:36.820Z,21.57
2019-03-27T10:25:09.967Z,18.90
2019-03-27T10:27:42.400Z,16.57
2019-03-27T10:30:16.034Z,16.30
2019-03-27T10:32:48.149Z,23.95
2019-03-27T10:35:20.503Z,19.93
2019-03-27T10:37:52.550Z,19.60
2019-03-27T10:40:25.020Z,21.07
2019-03-27T10:42:57.695Z,21.43
2019-03-27T10:45:29.776Z,13.37
2019-03-27T10:48:01.855Z,16.13
2019-03-27T10:50:33.998Z,17.93
2019-03-27T10:53:06.131Z,18.60
2019-03-27T10:55:39.771Z,18.63
2019-03-27T10:58:12.191Z,17.42
2019-03-27T11:00:44.340Z,15.63
2019-03-27T11:03:16.770Z,13.40
2019-03-27T11:05:53.839Z,17.07
2019-03-27T11:08:26.164Z,13.47
2019-03-27T11:10:58.818Z,14.27
2019-03-27T11:13:34.510Z,19.70
2019-03-27T11:16:12.619Z,16.37
2019-03-27T11:18:49.556Z,11.57
2019-03-27T11:21:27.717Z,10.95
2019-03-27T11:24:02.645Z,13.37
2019-03-27T11:26:36.144Z,15.17
2019-03-27T11:29:08.463Z,15.53
2019-03-27T11:31:43.798Z,10.90
2019-03-27T11:34:16.399Z,12.13
2019-03-27T11:36:49.000Z,10.13
2019-03-27T11:39:27.777Z,8.57
2019-03-27T11:42:01.045Z,10.50
2019-03-27T11:44:38.294Z,8.18
2019-03-27T11:47:10.440Z,16.40
2019-03-27T11:49:43.395Z,8.70
2019-03-27T11:52:15.989Z,17.20
2019-03-27T11:54:48.754Z,11.17
2019-03-27T11:57:21.660Z,9.00
2019-03-27T11:59:54.500Z,10.37
2019-03-27T12:02:26.892Z,12.98
2019-03-27T12:04:59.710Z,10.70
2019-03-27T12:07:32.160Z,11.47
2019-03-27T12:10:05.158Z,9.28
2019-03-27T12:12:37.966Z,7.80
2019-03-27T12:15:10.681Z,9.30
2019-03-27T12:17:43.015Z,10.17
2019-03-27T12:20:16.541Z,8.53
2019-03-27T12:22:57.578Z,14.27
2019-03-27T12:25:22.766Z,8.43
2019-03-27T12:27:55.564Z,12.27
2019-03-27T12:30:27.677Z,13.77
2019-03-27T12:32:59.767Z,11.70
2019-03-27T12:35:31.931Z,10.43
2019-03-27T12:38:04.625Z,8.93
2019-03-27T12:40:38.550Z,6.47
2019-03-27T12:43:10.780Z,7.30
2019-03-27T12:45:44.414Z,13.00
2019-03-27T12:48:16.518Z,13.87
2019-03-27T12:50:49.641Z,14.98
2019-03-27T12:53:22.281Z,9.00
2019-03-27T12:55:54.889Z,8.43
2019-03-27T12:58:27.640Z,5.63
2019-03-27T13:01:00.048Z,8.77
2019-03-27T13:03:34.567Z,7.28
2019-03-27T13:06:06.764Z,6.37
2019-03-27T13:08:39.193Z,5.83
2019-03-27T13:11:11.432Z,8.33
2019-03-27T13:13:43.641Z,7.10
2019-03-27T13:16:17.620Z,7.27
2019-03-27T13:18:49.717Z,6.17
2019-03-27T13:21:26.605Z,8.60
2019-03-27T13:24:00.252Z,5.73
2019-03-27T13:26:32.353Z,5.17
2019-03-27T13:29:04.788Z,9.60
2019-03-27T13:31:36.903Z,8.93
2019-03-27T13:34:09.058Z,5.53
2019-03-27T13:36:45.947Z,11.03
2019-03-27T13:39:21.381Z,7.57
2019-03-27T13:41:53.863Z,11.63
2019-03-27T13:44:36.285Z,10.30
2019-03-27T13:47:01.989Z,18.33
2019-03-27T13:49:34.215Z,11.63
2019-03-27T13:52:06.644Z,11.53
2019-03-27T13:54:39.213Z,5.13
2019-03-27T13:57:11.301Z,13.62
2019-03-27T13:59:43.428Z,8.40
2019-03-27T14:02:16.081Z,11.13
2019-03-27T14:04:48.538Z,6.30
2019-03-27T14:07:21.506Z,9.43
2019-03-27T14:09:54.016Z,6.90
2019-03-27T14:12:26.561Z,4.47
2019-03-27T14:14:59.301Z,6.30
2019-03-27T14:17:31.710Z,13.90
2019-03-27T14:20:04.587Z,6.93
2019-03-27T14:22:36.750Z,6.97
2019-03-27T14:25:11.671Z,6.10
2019-03-27T14:27:45.556Z,4.90
2019-03-27T14:30:52.048Z,10.73
2019-03-27T14:33:24.784Z,7.37
2019-03-27T14:35:58.073Z,7.43
2019-03-27T14:38:31.275Z,7.03
2019-03-27T14:41:06.066Z,9.53
2019-03-27T14:43:39.943Z,5.67
2019-03-27T14:46:15.536Z,7.80
2019-03-27T14:48:48.693Z,7.57
2019-03-27T14:51:22.300Z,10.20
2019-03-27T14:53:55.485Z,9.43
2019-03-27T14:56:27.983Z,6.43
2019-03-27T14:59:04.304Z,8.87
2019-03-27T15:01:37.211Z,5.53
2019-03-27T15:04:11.804Z,9.00
2019-03-27T15:06:45.904Z,5.77
2019-03-27T15:09:18.046Z,8.43
2019-03-27T15:11:50.151Z,5.60
2019-03-27T15:14:22.880Z,10.72
2019-03-27T15:16:56.067Z,9.68
2019-03-27T15:19:30.640Z,5.37
2019-03-27T15:22:03.546Z,12.10
2019-03-27T15:24:36.324Z,8.17
2019-03-27T15:27:08.625Z,11.27
2019-03-27T15:29:41.023Z,9.60
2019-03-27T15:32:13.564Z,6.53
2019-03-27T15:34:46.187Z,7.30
2019-03-27T15:37:18.433Z,7.20
2019-03-27T15:39:51.580Z,6.10
2019-03-27T15:42:23.757Z,9.67
2019-03-27T15:44:56.233Z,7.30
2019-03-27T15:47:31.106Z,6.30
2019-03-27T15:50:04.193Z,7.00
2019-03-27T15:52:37.242Z,6.87
2019-03-27T15:55:10.963Z,8.70
2019-03-27T15:57:43.176Z,8.37
2019-03-27T16:00:16.417Z,11.97
2019-03-27T16:02:50.428Z,8.95
2019-03-27T16:05:23.314Z,13.70
2019-03-27T16:07:55.769Z,11.10
2019-03-27T16:10:30.700Z,14.33
2019-03-27T16:13:06.138Z,9.50
2019-03-27T16:15:40.310Z,11.67
2019-03-27T16:18:12.584Z,10.60
2019-03-27T16:20:45.166Z,10.30
2019-03-27T16:23:17.733Z,8.20
2019-03-27T16:25:50.207Z,12.03
2019-03-27T16:28:22.278Z,11.63
2019-03-27T16:30:55.552Z,6.23
2019-03-27T16:33:28.771Z,8.93
2019-03-27T16:36:01.292Z,8.20
2019-03-27T16:38:33.713Z,8.63
2019-03-27T16:41:06.340Z,7.63
2019-03-27T16:43:38.960Z,9.50
2019-03-27T16:46:11.129Z,7.30
2019-03-27T16:48:43.681Z,8.47
2019-03-27T16:51:16.460Z,6.07
2019-03-27T16:53:49.188Z,14.35
2019-03-27T16:56:22.042Z,5.27
2019-03-27T16:58:55.622Z,6.53
2019-03-27T17:01:28.541Z,7.25
2019-03-27T17:04:01.257Z,10.17
2019-03-27T17:06:33.730Z,10.95
2019-03-27T17:09:07.821Z,10.70
2019-03-27T17:11:40.860Z,11.97
2019-03-27T17:14:12.923Z,10.33
2019-03-27T17:16:47.972Z,10.43
2019-03-27T17:19:20.796Z,13.55
2019-03-27T17:21:53.654Z,7.73
2019-03-27T17:24:25.792Z,10.37
2019-03-27T17:26:58.270Z,11.07
2019-03-27T17:29:31.651Z,8.23
2019-03-27T17:32:04.510Z,14.83
2019-03-27T17:34:37.374Z,17.73
2019-03-27T17:37:09.782Z,11.27
2019-03-27T17:39:41.941Z,9.10
2019-03-27T17:42:15.256Z,11.43
2019-03-27T17:44:47.363Z,10.33
2019-03-27T17:47:21.534Z,10.70
2019-03-27T17:49:54.536Z,9.67
2019-03-27T17:52:26.986Z,10.40
2019-03-27T17:54:59.502Z,13.27
2019-03-27T17:57:31.966Z,12.13
2019-03-27T18:00:05.521Z,13.83
2019-03-27T18:02:38.909Z,12.80
2019-03-27T18:05:11.439Z,13.53
2019-03-27T18:07:43.666Z,10.20
2019-03-27T18:10:17.670Z,13.70
2019-03-27T18:12:50.172Z,15.53
2019-03-27T18:15:22.231Z,12.37
2019-03-27T18:17:54.489Z,10.43
2019-03-27T18:20:26.597Z,12.40
2019-03-27T18:22:59.260Z,11.37
2019-03-27T18:25:31.363Z,9.87
2019-03-27T18:28:03.874Z,9.25
2019-03-27T18:30:35.971Z,8.83
2019-03-27T18:33:08.076Z,8.08
2019-03-27T18:35:40.245Z,9.07
2019-03-27T18:38:12.734Z,9.08
2019-03-27T18:40:45.558Z,12.63
2019-03-27T18:43:18.463Z,10.37
2019-03-27T18:45:50.936Z,9.83
2019-03-27T18:48:23.386Z,8.50
2019-03-27T18:50:55.786Z,8.65
2019-03-27T18:53:27.988Z,12.10
2019-03-27T18:56:00.573Z,11.23
2019-03-27T18:58:33.168Z,9.70
2019-03-27T19:01:06.044Z,13.32
2019-03-27T19:03:38.841Z,9.95
2019-03-27T19:06:10.964Z,9.87
2019-03-27T19:08:43.029Z,11.90
2019-03-27T19:11:15.403Z,11.37
2019-03-27T19:13:47.862Z,11.60
2019-03-27T19:16:20.414Z,12.93
2019-03-27T19:18:52.502Z,9.33
2019-03-27T19:21:25.127Z,9.93
2019-03-27T19:23:57.486Z,15.23
2019-03-27T19:26:29.594Z,13.40
2019-03-27T19:29:02.483Z,15.70
2019-03-27T19:31:34.593Z,21.80
2019-03-27T19:34:06.704Z,16.45
2019-03-27T19:36:41.864Z,13.08
2019-03-27T19:39:14.554Z,13.40
2019-03-27T19:41:46.592Z,13.83
2019-03-27T19:44:19.234Z,21.90
2019-03-27T19:46:51.768Z,17.37
2019-03-27T19:49:23.831Z,21.00
2019-03-27T19:51:56.451Z,23.47
2019-03-27T19:54:29.050Z,19.45
2019-03-27T19:57:01.174Z,27.70
2019-03-27T19:59:34.776Z,22.37
2019-03-27T20:02:06.908Z,19.77
2019-03-27T20:04:39.151Z,19.42
2019-03-27T20:07:11.309Z,19.87
2019-03-27T20:09:43.824Z,18.52
2019-03-27T20:12:16.591Z,18.00
2019-03-27T20:14:49.205Z,18.70
2019-03-27T20:17:24.449Z,15.13
2019-03-27T20:19:59.502Z,18.80
2019-03-27T20:22:31.725Z,19.37
2019-03-27T20:25:03.869Z,21.30
2019-03-27T20:27:37.675Z,21.37
2019-03-27T20:30:13.314Z,20.75
2019-03-27T20:32:45.569Z,21.40
2019-03-27T20:35:18.043Z,25.17
2019-03-27T20:37:50.906Z,20.83
2019-03-27T20:40:27.408Z,19.63
2019-03-27T20:42:58.036Z,20.73
2019-03-27T20:45:30.146Z,22.03
2019-03-27T20:48:03.005Z,21.83
2019-03-27T20:50:35.457Z,20.00
2019-03-27T20:53:10.074Z,20.27
2019-03-27T20:55:45.313Z,22.77
2019-03-27T20:58:18.470Z,21.60
2019-03-27T21:00:51.322Z,21.10
2019-03-27T21:03:23.475Z,25.23
2019-03-27T21:05:55.586Z,22.67
2019-03-27T21:08:28.090Z,26.53
2019-03-27T21:11:00.563Z,20.40
2019-03-27T21:13:35.628Z,22.67
2019-03-27T21:16:07.764Z,25.93
2019-03-27T21:18:41.014Z,21.30
2019-03-27T21:21:13.430Z,22.50
2019-03-27T21:23:46.526Z,22.73
2019-03-27T21:26:19.519Z,23.63
2019-03-27T21:28:51.619Z,22.83
2019-03-27T21:31:24.926Z,20.07
2019-03-27T21:33:57.827Z,21.17
2019-03-27T21:36:30.626Z,23.50
2019-03-27T21:39:03.471Z,25.40
2019-03-27T21:41:38.758Z,21.07
2019-03-27T21:44:11.959Z,22.83
2019-03-27T21:46:46.606Z,23.80
2019-03-27T21:49:21.295Z,20.95
2019-03-27T21:51:53.468Z,22.13
2019-03-27T21:54:26.272Z,26.85
2019-03-27T21:56:58.498Z,26.70
2019-03-27T21:59:33.313Z,23.17
2019-03-27T22:02:07.542Z,23.37
2019-03-27T22:04:41.152Z,25.03
2019-03-27T22:07:13.210Z,26.20
2019-03-27T22:09:45.625Z,25.60
2019-03-27T22:12:18.452Z,25.82
2019-03-27T22:14:50.788Z,25.10
2019-03-27T22:17:22.895Z,27.37
2019-03-27T22:19:58.467Z,30.77
2019-03-27T22:22:32.545Z,26.33
2019-03-27T22:25:05.407Z,26.10
2019-03-27T22:27:38.141Z,26.17
2019-03-27T22:30:11.736Z,27.48
2019-03-27T22:32:44.237Z,33.43
2019-03-27T22:35:16.464Z,29.23
2019-03-27T22:37:49.065Z,31.23
2019-03-27T22:40:21.246Z,33.07
2019-03-27T22:42:56.807Z,32.63
2019-03-27T22:45:28.499Z,28.40
2019-03-27T22:48:01.491Z,27.63
2019-03-27T22:50:36.142Z,29.73
2019-03-27T22:53:08.396Z,27.77
2019-03-27T22:55:49.706Z,32.83
2019-03-27T22:58:14.733Z,33.15
2019-03-27T23:00:49.492Z,41.43
2019-03-27T23:03:23.930Z,34.40
2019-03-27T23:05:56.960Z,28.83
2019-03-27T23:08:29.087Z,30.10
2019-03-27T23:11:01.233Z,30.33
2019-03-27T23:13:33.558Z,28.97
2019-03-27T23:16:06.290Z,29.87
2019-03-27T23:18:38.761Z,26.47
2019-03-27T23:21:11.207Z,27.77
2019-03-27T23:23:43.327Z,26.33
2019-03-27T23:26:15.703Z,25.63
2019-03-27T23:28:48.228Z,26.00
2019-03-27T23:31:20.711Z,28.40
2019-03-27T23:33:53.094Z,28.10
2019-03-27T23:36:27.083Z,24.23
2019-03-27T23:39:00.280Z,26.73
2019-03-27T23:41:33.096Z,25.47
2019-03-27T23:44:05.852Z,32.87
2019-03-27T23:46:38.621Z,25.20
2019-03-27T23:49:11.117Z,26.67
2019-03-27T23:51:43.899Z,31.37
2019-03-27T23:54:16.891Z,26.97
2019-03-27T23:56:50.531Z,34.03
2019-03-27T23:59:22.631Z,29.60
